TimeEST,TemperatureF,Dew PointF,Humidity,Sea Level PressureIn,VisibilityMPH,Wind Direction,Wind SpeedMPH,Gust SpeedMPH,PrecipitationIn,Events,Conditions,WindDirDegrees,DateUTC
12:54 AM,42.1,26.1,53,30.17,10.0,South,8.1,-,N/A,,Scattered Clouds,180,2013-11-09 05:54:00
1:54 AM,43.0,25.0,49,30.14,10.0,South,12.7,-,N/A,,Scattered Clouds,180,2013-11-09 06:54:00
2:54 AM,44.1,25.0,47,30.12,10.0,South,16.1,-,N/A,,Scattered Clouds,180,2013-11-09 07:54:00
3:54 AM,42.1,26.1,53,30.12,10.0,South,10.4,-,N/A,,Scattered Clouds,190,2013-11-09 08:54:00
4:54 AM,43.0,25.0,49,30.10,10.0,SSW,16.1,-,N/A,,Partly Cloudy,200,2013-11-09 09:54:00
5:54 AM,42.1,26.1,53,30.09,10.0,SSW,13.8,-,N/A,,Partly Cloudy,200,2013-11-09 10:54:00
6:54 AM,42.1,27.0,55,30.08,10.0,SSW,15.0,-,N/A,,Partly Cloudy,200,2013-11-09 11:54:00
7:54 AM,42.1,28.0,58,30.08,10.0,SSW,11.5,-,N/A,,Partly Cloudy,210,2013-11-09 12:54:00
8:54 AM,45.0,30.9,58,30.09,10.0,SSW,11.5,-,N/A,,Partly Cloudy,210,2013-11-09 13:54:00
9:54 AM,51.1,35.1,54,30.07,10.0,SW,20.7,26.5,N/A,,Partly Cloudy,230,2013-11-09 14:54:00
10:54 AM,54.0,36.0,51,30.06,10.0,SW,20.7,31.1,N/A,,Partly Cloudy,230,2013-11-09 15:54:00
11:54 AM,55.9,37.0,49,30.05,10.0,WSW,20.7,31.1,N/A,,Partly Cloudy,240,2013-11-09 16:54:00
12:54 PM,57.9,37.9,47,30.03,10.0,SW,17.3,-,N/A,,Clear,220,2013-11-09 17:54:00
1:54 PM,60.1,37.9,44,30.01,10.0,SW,18.4,26.5,N/A,,Clear,230,2013-11-09 18:54:00
2:54 PM,60.1,39.0,46,30.01,10.0,SW,21.9,-,N/A,,Clear,230,2013-11-09 19:54:00
3:54 PM,60.1,37.9,44,30.00,10.0,SW,25.3,31.1,N/A,,Partly Cloudy,230,2013-11-09 20:54:00
4:54 PM,59.0,37.9,46,30.01,10.0,WSW,18.4,26.5,N/A,,Partly Cloudy,240,2013-11-09 21:54:00
5:54 PM,55.9,37.9,51,30.04,10.0,WSW,13.8,-,N/A,,Partly Cloudy,240,2013-11-09 22:54:00
6:54 PM,52.0,39.0,61,30.06,10.0,WSW,10.4,-,N/A,,Clear,240,2013-11-09 23:54:00
7:54 PM,51.1,39.0,63,30.07,10.0,WSW,10.4,-,N/A,,Clear,240,2013-11-10 00:54:00
8:54 PM,48.0,39.0,71,30.09,10.0,WSW,10.4,-,N/A,,Clear,250,2013-11-10 01:54:00
9:54 PM,48.0,39.0,71,30.10,10.0,West,10.4,-,N/A,,Clear,260,2013-11-10 02:54:00
10:54 PM,46.0,37.0,71,30.12,10.0,WSW,8.1,-,N/A,,Clear,250,2013-11-10 03:54:00
11:54 PM,44.1,36.0,73,30.12,10.0,West,9.2,-,N/A,,Clear,270,2013-11-10 04:54:00